Time;durP1;ratioP1;P1;durP2;ratioP2;P2;SDS_P1;SDS_P2;PMS_P1;PMS_P2;Temp;Humidity;BMP_temperature;BMP_pressure;BME280_temperature;BME280_humidity;BME280_pressure;Samples;Min_cycle;Max_cycle;Signal;HPM_P1;HPM_P2
2022/06/26 00:01:10;;;;;;;22.40;15.73;;;;;;;;;;5005071;28;20694;-65
2022/06/26 00:03:36;;;;;;;19.33;14.30;;;;;;;;;;4993765;28;20231;-64
2022/06/26 00:06:03;;;;;;;20.27;13.07;;;;;;;;;;4989711;28;20303;-64
2022/06/26 00:08:30;;;;;;;20.03;12.57;;;;;;;;;;5006589;28;20243;-64
2022/06/26 00:11:14;;;;;;;17.23;11.80;;;;;;;;;;5004498;28;20238;-65
2022/06/26 00:13:41;;;;;;;17.17;12.07;;;;;;;;;;5006853;28;20239;-64
2022/06/26 00:16:07;;;;;;;14.20;10.90;;;;;;;;;;5005193;28;20227;-65
2022/06/26 00:18:34;;;;;;;19.53;12.87;;;;;;;;;;5006486;28;20231;-64
2022/06/26 00:21:01;;;;;;;17.40;11.23;;;;;;;;;;5000700;28;20239;-64
2022/06/26 00:23:27;;;;;;;19.63;12.97;;;;;;;;;;5003306;28;20227;-64
2022/06/26 00:25:54;;;;;;;22.37;12.87;;;;;;;;;;5002191;28;20246;-65
2022/06/26 00:28:20;;;;;;;18.33;12.13;;;;;;;;;;5005290;28;20234;-64
2022/06/26 00:30:47;;;;;;;14.63;10.83;;;;;;;;;;5003809;28;20224;-64
2022/06/26 00:33:31;;;;;;;13.80;11.20;;;;;;;;;;5006155;28;20422;-64
2022/06/26 00:35:58;;;;;;;16.20;12.50;;;;;;;;;;5004624;28;20223;-65
2022/06/26 00:38:42;;;;;;;18.67;12.13;;;;;;;;;;5002964;28;20215;-64
2022/06/26 00:41:08;;;;;;;20.47;14.87;;;;;;;;;;4987143;28;20243;-64
2022/06/26 00:43:35;;;;;;;24.27;14.37;;;;;;;;;;4986531;28;20231;-64
2022/06/26 00:46:04;;;;;;;19.97;15.00;;;;;;;;;;5005000;28;20227;-64
2022/06/26 00:48:31;;;;;;;19.50;13.67;;;;;;;;;;4988778;28;20219;-65
2022/06/26 00:50:57;;;;;;;20.17;14.03;;;;;;;;;;5006045;28;20234;-64
2022/06/26 00:53:24;;;;;;;20.13;14.27;;;;;;;;;;5004042;28;20238;-65
2022/06/26 00:55:51;;;;;;;18.07;13.83;;;;;;;;;;5006080;28;20227;-64
2022/06/26 00:58:17;;;;;;;19.33;13.43;;;;;;;;;;5004155;28;20350;-65
2022/06/26 01:00:44;;;;;;;21.00;14.17;;;;;;;;;;5006010;28;20235;-64
2022/06/26 01:03:11;;;;;;;16.57;13.87;;;;;;;;;;4986663;28;20243;-65
2022/06/26 01:05:39;;;;;;;20.23;13.97;;;;;;;;;;5005907;28;20285;-64
2022/06/26 01:08:06;;;;;;;19.43;14.83;;;;;;;;;;4984184;28;20219;-65
2022/06/26 01:10:34;;;;;;;17.67;15.63;;;;;;;;;;5002931;28;20661;-64
2022/06/26 01:13:18;;;;;;;20.30;14.77;;;;;;;;;;5003146;28;20354;-65
2022/06/26 01:15:44;;;;;;;17.97;14.13;;;;;;;;;;4990794;28;20230;-65
2022/06/26 01:18:28;;;;;;;19.43;14.60;;;;;;;;;;5005060;28;20219;-64
2022/06/26 01:20:55;;;;;;;18.63;14.97;;;;;;;;;;5000544;28;20567;-64
2022/06/26 01:23:39;;;;;;;19.30;14.27;;;;;;;;;;5003336;28;20305;-64
2022/06/26 01:26:06;;;;;;;22.13;16.17;;;;;;;;;;4981658;28;20703;-65
2022/06/26 01:28:50;;;;;;;27.27;18.67;;;;;;;;;;4985565;28;20584;-65
2022/06/26 01:31:18;;;;;;;31.97;20.27;;;;;;;;;;4985471;28;20235;-65
2022/06/26 01:33:46;;;;;;;26.47;17.73;;;;;;;;;;4971406;28;20227;-64
2022/06/26 01:36:13;;;;;;;25.23;18.00;;;;;;;;;;4999996;28;20223;-64
2022/06/26 01:38:40;;;;;;;26.27;18.23;;;;;;;;;;4986953;28;20227;-64
2022/06/26 01:41:07;;;;;;;27.03;17.80;;;;;;;;;;5003125;28;20231;-64
2022/06/26 01:43:35;;;;;;;27.13;17.60;;;;;;;;;;4986026;28;21021;-64
2022/06/26 01:46:04;;;;;;;24.23;17.30;;;;;;;;;;4988519;28;20227;-65
2022/06/26 01:48:34;;;;;;;25.37;18.60;;;;;;;;;;5001380;28;20224;-65
2022/06/26 01:51:00;;;;;;;27.30;18.40;;;;;;;;;;4985621;28;20239;-65
2022/06/26 01:53:28;;;;;;;32.30;19.97;;;;;;;;;;4986996;28;20361;-64
2022/06/26 01:55:55;;;;;;;33.03;20.53;;;;;;;;;;4971752;28;20227;-64
2022/06/26 01:58:32;;;;;;;30.47;19.53;;;;;;;;;;4983436;28;20223;-64
2022/06/26 02:00:59;;;;;;;24.10;18.00;;;;;;;;;;4986048;28;20235;-65
2022/06/26 02:03:27;;;;;;;25.47;17.33;;;;;;;;;;4986321;28;20232;-65
2022/06/26 02:05:54;;;;;;;24.63;17.33;;;;;;;;;;4978260;28;20969;-65
2022/06/26 02:08:20;;;;;;;27.90;17.97;;;;;;;;;;4975648;28;20679;-65
2022/06/26 02:13:36;;;;;;;26.10;19.13;;;;;;;;;;4975877;28;20227;-65
2022/06/26 02:16:13;;;;;;;26.03;19.23;;;;;;;;;;4983205;28;20685;-65
2022/06/26 02:18:42;;;;;;;25.37;17.73;;;;;;;;;;4989765;28;20277;-65
2022/06/26 02:21:10;;;;;;;22.67;17.10;;;;;;;;;;4984508;28;31331;-65
2022/06/26 02:23:36;;;;;;;21.23;16.47;;;;;;;;;;4981369;28;20736;-64
2022/06/26 02:26:04;;;;;;;25.07;17.00;;;;;;;;;;4971221;28;20246;-65
2022/06/26 02:28:31;;;;;;;22.57;15.37;;;;;;;;;;4983825;28;20706;-64
2022/06/26 02:30:58;;;;;;;22.03;14.80;;;;;;;;;;5003833;28;20219;-65
2022/06/26 02:33:26;;;;;;;21.73;15.67;;;;;;;;;;4984688;28;20591;-65
2022/06/26 02:36:13;;;;;;;21.87;16.33;;;;;;;;;;4985940;28;20679;-65
2022/06/26 02:38:40;;;;;;;24.57;15.90;;;;;;;;;;5002255;28;20234;-65
2022/06/26 02:41:24;;;;;;;19.70;15.53;;;;;;;;;;4986232;28;20302;-65
2022/06/26 02:43:51;;;;;;;21.93;16.47;;;;;;;;;;4984065;28;20242;-65
2022/06/26 02:46:35;;;;;;;22.37;17.90;;;;;;;;;;4986547;28;20226;-65
2022/06/26 02:49:02;;;;;;;21.20;17.73;;;;;;;;;;4984419;28;20227;-65
2022/06/26 02:51:46;;;;;;;23.67;19.10;;;;;;;;;;4986270;28;20211;-65
2022/06/26 02:54:13;;;;;;;21.90;16.33;;;;;;;;;;4985858;28;20614;-65
2022/06/26 02:56:41;;;;;;;21.70;16.33;;;;;;;;;;4984759;28;20230;-65
2022/06/26 02:59:07;;;;;;;20.17;16.50;;;;;;;;;;4986210;28;20576;-64
2022/06/26 03:01:34;;;;;;;21.77;16.83;;;;;;;;;;4984870;28;20219;-65
2022/06/26 03:04:27;;;;;;;15.63;13.90;;;;;;;;;;4988609;28;20686;-65
2022/06/26 03:06:57;;;;;;;16.23;14.53;;;;;;;;;;4984695;28;20230;-65
2022/06/26 03:09:24;;;;;;;19.47;15.60;;;;;;;;;;4972328;28;20306;-65
2022/06/26 03:11:51;;;;;;;18.57;15.17;;;;;;;;;;5005671;28;20334;-65
2022/06/26 03:14:18;;;;;;;17.80;14.20;;;;;;;;;;4989991;28;20226;-65
2022/06/26 03:16:48;;;;;;;16.30;14.27;;;;;;;;;;4968650;28;20560;-65
2022/06/26 03:19:16;;;;;;;19.83;16.07;;;;;;;;;;4982367;28;20952;-65
2022/06/26 03:21:42;;;;;;;18.53;16.53;;;;;;;;;;4990018;28;20226;-65
2022/06/26 03:24:12;;;;;;;24.70;17.70;;;;;;;;;;4968616;28;20595;-65
2022/06/26 03:26:39;;;;;;;24.13;17.67;;;;;;;;;;4953907;28;20220;-65
2022/06/26 03:29:06;;;;;;;21.60;16.73;;;;;;;;;;4985544;28;20307;-65
2022/06/26 03:31:34;;;;;;;20.00;16.97;;;;;;;;;;4978471;28;20228;-65
2022/06/26 03:34:01;;;;;;;20.50;16.93;;;;;;;;;;4966912;28;20236;-65
2022/06/26 03:36:28;;;;;;;21.27;16.50;;;;;;;;;;4978422;28;20230;-65
2022/06/26 03:38:56;;;;;;;20.20;15.97;;;;;;;;;;4985939;28;20315;-65
2022/06/26 03:41:24;;;;;;;19.47;16.37;;;;;;;;;;4984374;28;20242;-65
2022/06/26 03:43:51;;;;;;;24.07;18.70;;;;;;;;;;4985789;28;20354;-65
2022/06/26 03:46:19;;;;;;;20.80;17.37;;;;;;;;;;4986641;28;20220;-65
2022/06/26 03:48:45;;;;;;;23.03;17.13;;;;;;;;;;4986007;28;20294;-65
2022/06/26 03:51:12;;;;;;;20.90;17.17;;;;;;;;;;4968009;28;20242;-65
2022/06/26 03:53:39;;;;;;;19.40;17.07;;;;;;;;;;4989129;28;20314;-65
2022/06/26 03:56:06;;;;;;;19.37;15.83;;;;;;;;;;5003879;28;20231;-65
2022/06/26 03:58:32;;;;;;;23.00;16.10;;;;;;;;;;5006912;28;20231;-65
2022/06/26 04:00:59;;;;;;;19.50;15.60;;;;;;;;;;4986147;28;28736;-65
2022/06/26 04:03:26;;;;;;;24.67;16.10;;;;;;;;;;5007247;28;20701;-65
2022/06/26 04:05:53;;;;;;;24.10;16.07;;;;;;;;;;5004513;28;20242;-65
2022/06/26 04:08:19;;;;;;;22.03;14.90;;;;;;;;;;4988778;28;20300;-65
2022/06/26 04:11:00;;;;;;;20.93;14.37;;;;;;;;;;4988385;28;20249;-65
2022/06/26 04:13:32;;;;;;;18.77;13.33;;;;;;;;;;4987764;28;20234;-65
2022/06/26 04:16:00;;;;;;;17.40;12.83;;;;;;;;;;4988727;28;20314;-65
2022/06/26 04:18:27;;;;;;;18.47;13.03;;;;;;;;;;4988077;28;20690;-66
2022/06/26 04:20:55;;;;;;;17.43;12.40;;;;;;;;;;4997923;28;20301;-65
2022/06/26 04:23:21;;;;;;;18.70;12.37;;;;;;;;;;5004472;28;20231;-65
2022/06/26 04:25:53;;;;;;;17.47;12.47;;;;;;;;;;4983977;28;20232;-65
2022/06/26 04:28:22;;;;;;;20.07;13.20;;;;;;;;;;4986203;28;20228;-65
2022/06/26 04:30:49;;;;;;;17.17;12.20;;;;;;;;;;4969089;28;20236;-65
2022/06/26 04:33:16;;;;;;;14.93;12.33;;;;;;;;;;4984829;28;20587;-65
2022/06/26 04:35:45;;;;;;;17.87;12.30;;;;;;;;;;4986139;28;20227;-65
2022/06/26 04:38:12;;;;;;;14.07;11.57;;;;;;;;;;5006149;28;20596;-65
2022/06/26 04:40:41;;;;;;;13.10;11.47;;;;;;;;;;4983744;28;20285;-65
2022/06/26 04:43:08;;;;;;;12.23;10.53;;;;;;;;;;4969314;28;20242;-65
2022/06/26 04:45:41;;;;;;;14.07;10.47;;;;;;;;;;4986495;28;20621;-66
2022/06/26 04:48:08;;;;;;;15.00;9.50;;;;;;;;;;4988358;28;20227;-65
2022/06/26 04:50:53;;;;;;;15.97;10.60;;;;;;;;;;4986020;28;20674;-66
2022/06/26 04:53:27;;;;;;;13.10;10.90;;;;;;;;;;4969492;28;319522;-66
2022/06/26 04:55:55;;;;;;;12.10;9.33;;;;;;;;;;4948466;28;20275;-65
2022/06/26 04:58:22;;;;;;;10.57;9.13;;;;;;;;;;4968402;28;20255;-66
2022/06/26 05:00:52;;;;;;;11.00;8.63;;;;;;;;;;4966709;28;20235;-66
2022/06/26 05:03:31;;;;;;;10.40;8.83;;;;;;;;;;4983856;28;20242;-66
2022/06/26 05:06:26;;;;;;;13.47;8.03;;;;;;;;;;4967451;28;20228;-66
2022/06/26 05:09:09;;;;;;;9.07;7.30;;;;;;;;;;4951090;28;21075;-66
2022/06/26 05:11:36;;;;;;;11.13;8.07;;;;;;;;;;4968299;28;20298;-66
2022/06/26 05:14:03;;;;;;;10.40;8.00;;;;;;;;;;4967133;28;20287;-66
2022/06/26 05:16:45;;;;;;;12.23;7.57;;;;;;;;;;4966340;28;20215;-66
2022/06/26 05:19:13;;;;;;;10.90;7.43;;;;;;;;;;4953584;28;20631;-66
2022/06/26 05:21:40;;;;;;;11.53;6.87;;;;;;;;;;4966062;28;20232;-66
2022/06/26 05:24:07;;;;;;;7.77;5.93;;;;;;;;;;4950879;28;20228;-66
2022/06/26 05:26:39;;;;;;;8.80;6.17;;;;;;;;;;4966009;28;20358;-66
2022/06/26 05:29:06;;;;;;;8.20;5.93;;;;;;;;;;4966090;28;20235;-66
2022/06/26 05:31:32;;;;;;;6.90;5.13;;;;;;;;;;4939241;28;20228;-66
2022/06/26 05:33:59;;;;;;;5.50;5.00;;;;;;;;;;4965651;28;20302;-66
2022/06/26 05:36:32;;;;;;;7.50;4.87;;;;;;;;;;4982582;28;20228;-66
2022/06/26 05:39:01;;;;;;;9.37;5.37;;;;;;;;;;4948754;28;20705;-66
2022/06/26 05:41:46;;;;;;;7.17;5.07;;;;;;;;;;4966670;28;20277;-66
2022/06/26 05:44:12;;;;;;;8.93;4.80;;;;;;;;;;4967187;28;20239;-66
2022/06/26 05:46:46;;;;;;;7.53;4.93;;;;;;;;;;4983018;28;20235;-66
2022/06/26 05:49:38;;;;;;;6.97;4.60;;;;;;;;;;4975215;28;20228;-66
2022/06/26 05:52:42;;;;;;;5.47;4.90;;;;;;;;;;4982416;28;20223;-66
2022/06/26 05:55:21;;;;;;;5.43;4.37;;;;;;;;;;5001857;28;20245;-66
2022/06/26 05:58:11;;;;;;;8.33;4.53;;;;;;;;;;4990989;28;20227;-66
2022/06/26 06:00:57;;;;;;;4.97;4.47;;;;;;;;;;4985718;28;20305;-66
2022/06/26 06:03:23;;;;;;;5.60;4.37;;;;;;;;;;4985144;28;20586;-66
2022/06/26 06:05:54;;;;;;;5.90;4.20;;;;;;;;;;4984988;28;20233;-66
2022/06/26 06:08:21;;;;;;;6.67;4.43;;;;;;;;;;5004065;28;20299;-66
2022/06/26 06:10:47;;;;;;;5.70;4.43;;;;;;;;;;4985135;28;20239;-66
2022/06/26 06:13:14;;;;;;;4.73;4.33;;;;;;;;;;4986233;28;20218;-66
2022/06/26 06:15:42;;;;;;;5.10;4.30;;;;;;;;;;5001718;28;20302;-66
2022/06/26 06:18:12;;;;;;;4.70;4.30;;;;;;;;;;4982994;28;20241;-66
2022/06/26 06:20:39;;;;;;;4.60;4.13;;;;;;;;;;4985353;28;20234;-66
2022/06/26 06:23:26;;;;;;;5.70;4.23;;;;;;;;;;5001606;28;20240;-66
2022/06/26 06:25:53;;;;;;;5.10;4.20;;;;;;;;;;5002942;28;20243;-66
2022/06/26 06:28:20;;;;;;;4.40;4.00;;;;;;;;;;5002052;28;20247;-66
2022/06/26 06:30:47;;;;;;;4.60;4.20;;;;;;;;;;4971367;28;20234;-66
2022/06/26 06:33:19;;;;;;;4.10;3.70;;;;;;;;;;4987455;28;20227;-66
2022/06/26 06:35:48;;;;;;;6.40;4.50;;;;;;;;;;4987123;28;20228;-67
2022/06/26 06:38:32;;;;;;;5.33;4.10;;;;;;;;;;4982969;28;20234;-66
2022/06/26 06:41:04;;;;;;;5.63;4.13;;;;;;;;;;4984428;28;20721;-67
2022/06/26 06:43:43;;;;;;;4.93;4.17;;;;;;;;;;4975307;28;20227;-67
2022/06/26 06:46:28;;;;;;;6.03;4.20;;;;;;;;;;5003440;28;20343;-67
2022/06/26 06:49:11;;;;;;;5.90;4.50;;;;;;;;;;4986018;28;20848;-66
2022/06/26 06:51:51;;;;;;;5.90;4.20;;;;;;;;;;4985905;28;20560;-66
2022/06/26 06:54:17;;;;;;;5.23;4.60;;;;;;;;;;4984351;28;20227;-67
2022/06/26 06:56:45;;;;;;;5.03;4.30;;;;;;;;;;5003189;28;20717;-67
2022/06/26 06:59:13;;;;;;;4.60;4.20;;;;;;;;;;5000317;28;20223;-67
2022/06/26 07:01:42;;;;;;;3.83;3.43;;;;;;;;;;4954899;28;20309;-67
2022/06/26 07:04:11;;;;;;;4.50;4.10;;;;;;;;;;4983972;28;20237;-67
2022/06/26 07:06:38;;;;;;;4.30;3.90;;;;;;;;;;4983704;28;20309;-67
2022/06/26 07:09:05;;;;;;;4.33;3.93;;;;;;;;;;4986084;28;20590;-66
2022/06/26 07:11:32;;;;;;;6.67;4.63;;;;;;;;;;4983838;28;20605;-67
2022/06/26 07:13:59;;;;;;;6.43;3.93;;;;;;;;;;5003323;28;20290;-67
2022/06/26 07:16:25;;;;;;;6.00;3.77;;;;;;;;;;5001053;28;20253;-67
2022/06/26 07:18:54;;;;;;;5.43;4.43;;;;;;;;;;5001631;28;21009;-68
2022/06/26 07:21:21;;;;;;;4.43;4.03;;;;;;;;;;4985299;28;20268;-68
2022/06/26 07:24:06;;;;;;;4.53;4.13;;;;;;;;;;4984734;28;20297;-67
2022/06/26 07:26:53;;;;;;;4.90;4.13;;;;;;;;;;4949944;28;20674;-68
2022/06/26 07:29:20;;;;;;;5.23;4.20;;;;;;;;;;4985833;28;20223;-68
2022/06/26 07:31:47;;;;;;;4.53;4.10;;;;;;;;;;4974484;28;20235;-68
2022/06/26 07:34:17;;;;;;;4.30;3.90;;;;;;;;;;4998549;28;20306;-68
2022/06/26 07:36:47;;;;;;;5.57;4.00;;;;;;;;;;4996773;28;20231;-68
2022/06/26 07:39:15;;;;;;;5.07;4.37;;;;;;;;;;4978844;28;20233;-68
2022/06/26 07:41:42;;;;;;;5.57;4.47;;;;;;;;;;4986072;28;20250;-68
2022/06/26 07:44:12;;;;;;;5.20;4.70;;;;;;;;;;4983283;28;20223;-68
2022/06/26 07:46:39;;;;;;;4.50;4.10;;;;;;;;;;5001890;28;20238;-68
2022/06/26 07:49:12;;;;;;;5.73;4.37;;;;;;;;;;4982351;28;20792;-68
2022/06/26 07:51:39;;;;;;;4.80;4.10;;;;;;;;;;4983749;28;20228;-68
2022/06/26 07:54:05;;;;;;;4.80;4.30;;;;;;;;;;5002611;28;20254;-68
2022/06/26 07:56:32;;;;;;;5.93;4.50;;;;;;;;;;4988203;28;20686;-68
2022/06/26 07:58:59;;;;;;;5.13;4.63;;;;;;;;;;5006226;28;20576;-68
2022/06/26 08:01:26;;;;;;;7.03;5.03;;;;;;;;;;5003620;28;20238;-68
2022/06/26 08:03:52;;;;;;;4.80;4.40;;;;;;;;;;5006158;28;20219;-66
2022/06/26 08:06:19;;;;;;;5.53;4.27;;;;;;;;;;5003981;28;20698;-66
2022/06/26 08:08:46;;;;;;;7.03;4.60;;;;;;;;;;4953236;28;20227;-67
2022/06/26 08:11:13;;;;;;;4.97;4.30;;;;;;;;;;4984069;28;20236;-67
2022/06/26 08:13:40;;;;;;;4.80;4.40;;;;;;;;;;4986628;28;20718;-67
2022/06/26 08:16:06;;;;;;;5.67;4.47;;;;;;;;;;4984534;28;20314;-67
2022/06/26 08:18:33;;;;;;;6.43;4.40;;;;;;;;;;4985139;28;27354;-67
2022/06/26 08:22:00;;;;;;;7.43;4.17;;;;;;;;;;4983960;28;20344;-67
2022/06/26 08:24:07;;;;;;;4.97;4.03;;;;;;;;;;4985407;28;20255;-67
2022/06/26 08:26:39;;;;;;;6.53;4.27;;;;;;;;;;5003564;28;20235;-68
2022/06/26 08:29:06;;;;;;;6.77;4.77;;;;;;;;;;4987152;28;20235;-67
2022/06/26 08:31:33;;;;;;;5.87;3.90;;;;;;;;;;5002902;28;20270;-67
2022/06/26 08:33:59;;;;;;;4.53;4.13;;;;;;;;;;5005674;28;20310;-67
2022/06/26 08:36:26;;;;;;;4.53;4.13;;;;;;;;;;5003295;28;20223;-67
2022/06/26 08:38:57;;;;;;;5.33;4.17;;;;;;;;;;4983479;28;20243;-68
2022/06/26 08:41:25;;;;;;;4.10;3.63;;;;;;;;;;4997478;28;20226;-68
2022/06/26 08:43:52;;;;;;;5.97;3.83;;;;;;;;;;5001925;28;20265;-68
2022/06/26 08:46:18;;;;;;;4.30;3.97;;;;;;;;;;5005029;28;20227;-68
2022/06/26 08:48:45;;;;;;;4.53;4.13;;;;;;;;;;4985924;28;20599;-68
2022/06/26 08:51:11;;;;;;;5.90;4.40;;;;;;;;;;4988365;28;20713;-68
2022/06/26 08:53:38;;;;;;;4.90;4.40;;;;;;;;;;5002548;28;20230;-69
2022/06/26 08:56:05;;;;;;;6.87;4.50;;;;;;;;;;5005439;28;20239;-68
2022/06/26 08:58:32;;;;;;;7.80;4.30;;;;;;;;;;5003265;28;20235;-68
2022/06/26 09:00:58;;;;;;;4.17;3.70;;;;;;;;;;5003743;28;20235;-69
2022/06/26 09:03:25;;;;;;;6.73;3.80;;;;;;;;;;4987628;28;20324;-68
2022/06/26 09:05:52;;;;;;;3.73;3.40;;;;;;;;;;5005053;28;20234;-68
2022/06/26 09:08:19;;;;;;;4.73;3.40;;;;;;;;;;5001903;28;20228;-68
2022/06/26 09:10:46;;;;;;;4.40;3.90;;;;;;;;;;5003454;28;20227;-71
2022/06/26 09:13:37;;;;;;;4.77;3.70;;;;;;;;;;4972251;28;20238;-74
2022/06/26 09:16:04;;;;;;;5.53;3.87;;;;;;;;;;5002531;28;20245;-72
2022/06/26 09:18:35;;;;;;;4.27;3.60;;;;;;;;;;5002992;28;35637;-73
2022/06/26 09:21:04;;;;;;;4.33;3.60;;;;;;;;;;4984838;28;23298;-72
2022/06/26 09:23:32;;;;;;;4.30;3.80;;;;;;;;;;4994341;28;217113;-74
2022/06/26 09:25:58;;;;;;;4.40;3.93;;;;;;;;;;4989978;28;20241;-75
2022/06/26 09:28:25;;;;;;;4.60;3.80;;;;;;;;;;4985584;28;20231;-62
2022/06/26 09:30:53;;;;;;;3.83;3.50;;;;;;;;;;5004790;28;20219;-62
2022/06/26 09:33:30;;;;;;;4.13;3.70;;;;;;;;;;5002297;28;20246;-64
2022/06/26 09:36:15;;;;;;;3.67;3.37;;;;;;;;;;4990193;28;20235;-62
2022/06/26 09:38:50;;;;;;;4.53;3.60;;;;;;;;;;5003472;28;20302;-62
2022/06/26 09:41:17;;;;;;;28.50;4.97;;;;;;;;;;5003230;28;20231;-63
2022/06/26 09:43:44;;;;;;;5.77;3.40;;;;;;;;;;5001802;28;20246;-62
2022/06/26 09:46:11;;;;;;;8.20;3.73;;;;;;;;;;5002744;28;20223;-62
2022/06/26 09:48:38;;;;;;;4.37;3.07;;;;;;;;;;5004839;28;20229;-62
2022/06/26 09:51:05;;;;;;;5.50;3.50;;;;;;;;;;4985108;28;20242;-62
2022/06/26 09:53:33;;;;;;;4.00;3.40;;;;;;;;;;4991276;28;20243;-63
2022/06/26 09:55:59;;;;;;;4.63;3.30;;;;;;;;;;5004977;28;20231;-62
2022/06/26 09:58:26;;;;;;;4.77;3.50;;;;;;;;;;4984914;28;20570;-63
2022/06/26 10:06:27;;;;;;;5.43;3.27;;;;;;;;;;4988080;28;20239;-62
2022/06/26 10:08:59;;;;;;;5.40;3.30;;;;;;;;;;5001765;28;21032;-63
2022/06/26 10:11:27;;;;;;;4.13;3.70;;;;;;;;;;5002406;28;20227;-63
2022/06/26 10:13:55;;;;;;;4.57;3.10;;;;;;;;;;5004463;28;20265;-62
2022/06/26 10:16:30;;;;;;;5.83;3.20;;;;;;;;;;4984993;28;20215;-63
2022/06/26 10:18:57;;;;;;;5.80;3.57;;;;;;;;;;5002125;28;21147;-62
2022/06/26 10:21:24;;;;;;;4.60;3.10;;;;;;;;;;5004044;28;20261;-61
2022/06/26 10:23:59;;;;;;;7.03;3.47;;;;;;;;;;5002893;28;20231;-62
2022/06/26 10:26:26;;;;;;;4.53;3.00;;;;;;;;;;5002273;28;20231;-62
2022/06/26 10:28:57;;;;;;;9.17;3.23;;;;;;;;;;5004440;28;20307;-62
2022/06/26 10:31:23;;;;;;;3.53;2.73;;;;;;;;;;5003050;28;20235;-62
2022/06/26 10:33:50;;;;;;;5.70;3.20;;;;;;;;;;5002994;28;20231;-62
2022/06/26 10:36:34;;;;;;;2.73;2.53;;;;;;;;;;5001003;28;21018;-62
2022/06/26 10:39:07;;;;;;;4.33;2.90;;;;;;;;;;5004063;28;20619;-62
2022/06/26 10:44:40;;;;;;;5.60;3.23;;;;;;;;;;4982904;28;20258;-62
2022/06/26 10:47:14;;;;;;;4.17;3.10;;;;;;;;;;4984623;28;20237;-62
2022/06/26 10:49:50;;;;;;;3.07;2.77;;;;;;;;;;5001734;28;20238;-62
2022/06/26 10:52:27;;;;;;;3.50;2.50;;;;;;;;;;5002156;28;20645;-62
2022/06/26 10:54:54;;;;;;;3.20;2.90;;;;;;;;;;4986493;28;20387;-62
2022/06/26 10:57:33;;;;;;;13.40;3.03;;;;;;;;;;5003751;28;20307;-62
2022/06/26 11:00:03;;;;;;;15.23;3.33;;;;;;;;;;5003642;28;20238;-63
2022/06/26 11:02:34;;;;;;;5.03;2.70;;;;;;;;;;5002168;28;20223;-63
2022/06/26 11:05:01;;;;;;;5.40;3.10;;;;;;;;;;5001767;28;20244;-62
2022/06/26 11:07:39;;;;;;;3.03;2.73;;;;;;;;;;4983936;28;20230;-63
2022/06/26 11:10:25;;;;;;;3.13;2.77;;;;;;;;;;4975336;28;20215;-62
2022/06/26 11:12:52;;;;;;;3.13;2.83;;;;;;;;;;4987200;28;20239;-65
2022/06/26 11:15:36;;;;;;;3.67;2.80;;;;;;;;;;4982109;28;20231;-62
2022/06/26 11:18:03;;;;;;;3.43;2.63;;;;;;;;;;4975914;28;20682;-62
2022/06/26 11:20:46;;;;;;;3.00;2.60;;;;;;;;;;5001829;28;20238;-65
2022/06/26 11:23:14;;;;;;;4.83;2.67;;;;;;;;;;5001294;28;25894;-62
2022/06/26 11:25:43;;;;;;;7.87;2.90;;;;;;;;;;5001970;28;20243;-65
2022/06/26 11:28:10;;;;;;;4.50;2.97;;;;;;;;;;4990391;28;20231;-62
2022/06/26 11:30:37;;;;;;;5.33;3.00;;;;;;;;;;5002103;28;20242;-63
2022/06/26 11:33:04;;;;;;;5.60;3.30;;;;;;;;;;4989701;28;20645;-61
2022/06/26 11:35:33;;;;;;;5.43;2.70;;;;;;;;;;5005464;28;20227;-61
2022/06/26 11:38:09;;;;;;;5.03;3.10;;;;;;;;;;4988309;28;20235;-62
2022/06/26 11:40:36;;;;;;;5.30;3.03;;;;;;;;;;5004732;28;20246;-62
2022/06/26 11:43:03;;;;;;;7.17;3.03;;;;;;;;;;4989390;28;20564;-61
2022/06/26 11:45:32;;;;;;;5.40;2.80;;;;;;;;;;4986340;28;20437;-62
2022/06/26 11:48:00;;;;;;;6.37;3.00;;;;;;;;;;5005017;28;20712;-62
2022/06/26 11:50:27;;;;;;;15.77;3.23;;;;;;;;;;4989226;28;20614;-61
2022/06/26 11:52:54;;;;;;;10.23;3.57;;;;;;;;;;5004960;28;20326;-62
2022/06/26 11:55:21;;;;;;;3.93;3.27;;;;;;;;;;5006212;28;20241;-63
2022/06/26 11:57:48;;;;;;;8.17;3.40;;;;;;;;;;5004565;28;20621;-63
2022/06/26 12:00:18;;;;;;;5.27;3.53;;;;;;;;;;5006380;28;20234;-63
2022/06/26 12:02:46;;;;;;;5.57;2.93;;;;;;;;;;5004804;28;20230;-63
2022/06/26 12:05:19;;;;;;;4.00;2.87;;;;;;;;;;5004437;28;20281;-62
2022/06/26 12:07:46;;;;;;;6.23;3.00;;;;;;;;;;5003566;28;20223;-61
2022/06/26 12:10:23;;;;;;;4.23;3.10;;;;;;;;;;4993329;28;20222;-60
2022/06/26 12:12:50;;;;;;;13.53;3.63;;;;;;;;;;5004797;28;20226;-61
2022/06/26 12:15:17;;;;;;;12.57;3.47;;;;;;;;;;5006457;28;20301;-60
2022/06/26 12:17:50;;;;;;;8.33;3.23;;;;;;;;;;5004303;28;20663;-61
2022/06/26 12:20:17;;;;;;;3.50;3.20;;;;;;;;;;4988578;28;20234;-62
2022/06/26 12:22:47;;;;;;;5.27;3.07;;;;;;;;;;5005907;28;20250;-61
2022/06/26 12:25:23;;;;;;;9.10;3.27;;;;;;;;;;5003884;28;20227;-61
2022/06/26 12:28:07;;;;;;;4.90;2.93;;;;;;;;;;4989387;28;20235;-62
2022/06/26 12:30:35;;;;;;;6.33;3.10;;;;;;;;;;5006126;28;20219;-61
2022/06/26 12:33:04;;;;;;;4.57;3.17;;;;;;;;;;5003317;28;20694;-61
2022/06/26 12:35:31;;;;;;;7.00;3.03;;;;;;;;;;5003916;28;20219;-62
2022/06/26 12:37:59;;;;;;;5.33;3.17;;;;;;;;;;5005095;28;20231;-62
2022/06/26 12:40:26;;;;;;;7.33;2.90;;;;;;;;;;4989959;28;20227;-60
2022/06/26 12:42:53;;;;;;;7.00;3.00;;;;;;;;;;5005752;28;20223;-62
2022/06/26 12:45:19;;;;;;;3.27;2.60;;;;;;;;;;5003414;28;20231;-62
2022/06/26 12:47:46;;;;;;;4.20;2.80;;;;;;;;;;5005103;28;20223;-76
2022/06/26 12:50:13;;;;;;;2.93;2.67;;;;;;;;;;4996494;28;20574;-77
2022/06/26 12:52:40;;;;;;;3.60;2.70;;;;;;;;;;5004431;28;20241;-77
2022/06/26 12:55:07;;;;;;;4.17;2.60;;;;;;;;;;4995159;28;217261;-77
2022/06/26 12:57:33;;;;;;;3.40;2.60;;;;;;;;;;5004604;28;20227;-75
2022/06/26 13:00:01;;;;;;;4.50;2.57;;;;;;;;;;4968598;28;233180;-77
2022/06/26 13:02:28;;;;;;;2.70;2.50;;;;;;;;;;4970872;28;20242;-76
2022/06/26 13:04:55;;;;;;;3.43;2.70;;;;;;;;;;5004119;28;20254;-76
2022/06/26 13:07:21;;;;;;;3.80;3.00;;;;;;;;;;4998306;28;20583;-76
2022/06/26 13:09:55;;;;;;;4.00;2.57;;;;;;;;;;4996766;28;20227;-76
2022/06/26 13:12:21;;;;;;;2.90;2.70;;;;;;;;;;4919843;28;214560;-75
2022/06/26 13:14:48;;;;;;;3.23;2.87;;;;;;;;;;4939980;28;20242;-73
2022/06/26 13:17:15;;;;;;;4.40;2.90;;;;;;;;;;4977717;28;20651;-73
2022/06/26 13:19:41;;;;;;;3.00;2.70;;;;;;;;;;4966967;28;20227;-73
2022/06/26 13:22:08;;;;;;;4.20;2.90;;;;;;;;;;4966269;28;20244;-74
2022/06/26 13:24:37;;;;;;;2.90;2.70;;;;;;;;;;4983803;28;20718;-73
2022/06/26 13:27:04;;;;;;;3.20;2.77;;;;;;;;;;4982031;28;20236;-73
2022/06/26 13:29:31;;;;;;;3.77;2.60;;;;;;;;;;4984382;28;20227;-72
2022/06/26 13:31:58;;;;;;;3.83;2.70;;;;;;;;;;4965205;28;20295;-73
2022/06/26 13:34:25;;;;;;;3.60;2.60;;;;;;;;;;4985391;28;23490;-73
2022/06/26 13:36:51;;;;;;;2.73;2.30;;;;;;;;;;4980749;28;23105;-72
2022/06/26 13:39:18;;;;;;;2.63;2.43;;;;;;;;;;4984560;28;20242;-73
2022/06/26 13:41:45;;;;;;;3.90;2.40;;;;;;;;;;4966603;28;20239;-72
2022/06/26 13:44:12;;;;;;;3.33;2.57;;;;;;;;;;4984913;28;20243;-72
2022/06/26 13:46:39;;;;;;;3.90;2.90;;;;;;;;;;4974094;28;219185;-72
2022/06/26 13:49:08;;;;;;;3.07;2.80;;;;;;;;;;4956806;28;20242;-72
2022/06/26 13:51:35;;;;;;;2.63;2.30;;;;;;;;;;4982042;28;20359;-74
2022/06/26 13:54:02;;;;;;;5.00;3.00;;;;;;;;;;4990641;28;20246;-72
2022/06/26 13:56:28;;;;;;;3.77;3.00;;;;;;;;;;4971993;28;20285;-73
2022/06/26 13:58:57;;;;;;;2.97;2.67;;;;;;;;;;5001701;28;20304;-72
2022/06/26 14:01:24;;;;;;;3.23;2.27;;;;;;;;;;4997258;28;20228;-73
2022/06/26 14:03:52;;;;;;;4.40;2.60;;;;;;;;;;4987128;28;217366;-71
2022/06/26 14:06:20;;;;;;;2.80;2.50;;;;;;;;;;5002008;28;20682;-72
2022/06/26 14:08:47;;;;;;;2.80;2.43;;;;;;;;;;5003973;28;20222;-81
2022/06/26 14:11:13;;;;;;;2.83;2.63;;;;;;;;;;4985504;28;20227;-62
2022/06/26 14:13:40;;;;;;;2.90;2.70;;;;;;;;;;4987308;28;20223;-62
2022/06/26 14:16:07;;;;;;;5.43;2.87;;;;;;;;;;5002626;28;20759;-62
2022/06/26 14:18:33;;;;;;;4.10;2.40;;;;;;;;;;5004656;28;20718;-62
2022/06/26 14:21:00;;;;;;;3.00;2.70;;;;;;;;;;4981725;28;20228;-62
2022/06/26 14:26:16;;;;;;;3.83;2.73;;;;;;;;;;4993492;28;20238;-62
2022/06/26 14:28:43;;;;;;;4.30;2.80;;;;;;;;;;5002036;28;20246;-62
2022/06/26 14:31:10;;;;;;;3.33;2.90;;;;;;;;;;5004428;28;20234;-62
2022/06/26 14:33:37;;;;;;;2.80;2.60;;;;;;;;;;5001666;28;20734;-62
2022/06/26 14:36:04;;;;;;;3.70;2.90;;;;;;;;;;5004382;28;20762;-61
2022/06/26 14:38:31;;;;;;;6.67;3.00;;;;;;;;;;5002413;28;20293;-62
2022/06/26 14:41:02;;;;;;;2.77;2.50;;;;;;;;;;4978498;28;20229;-72
2022/06/26 14:43:30;;;;;;;3.23;2.73;;;;;;;;;;5001201;28;20352;-72
2022/06/26 14:45:56;;;;;;;4.53;2.87;;;;;;;;;;4985478;28;22692;-72
2022/06/26 14:48:23;;;;;;;2.90;2.67;;;;;;;;;;5000460;28;20277;-72
2022/06/26 14:50:52;;;;;;;3.73;2.83;;;;;;;;;;5003361;28;20235;-72
2022/06/26 14:53:20;;;;;;;3.93;3.07;;;;;;;;;;5001421;28;20241;-73
2022/06/26 14:55:46;;;;;;;3.50;2.93;;;;;;;;;;5003238;28;20227;-74
2022/06/26 14:58:18;;;;;;;4.33;2.53;;;;;;;;;;5001341;28;20239;-73
2022/06/26 15:00:45;;;;;;;4.10;2.90;;;;;;;;;;5001037;28;20226;-72
2022/06/26 15:03:12;;;;;;;5.73;3.10;;;;;;;;;;5003131;28;20219;-72